ADDS METAR Data INFO
IDs: Format: Raw Decoded Include TAF

Data at: 0030 UTC 23 Oct 2017

KSHL 230015Z AUTO 17007KT 10SM CLR 13/M01 A2991 RMK AO2
KSHL 222355Z AUTO 18007KT CLR 14/M01 A2991 RMK AO2
KSHL 222335Z AUTO 17007KT 10SM CLR 15/M01 A2991 RMK AO2
KSHL 222315Z AUTO 19007KT 10SM CLR 16/M02 A2992 RMK AO2
KSHL 222255Z AUTO 19008KT 10SM CLR 17/M02 A2992 RMK AO2
KSHL 222235Z AUTO 20007G13KT 10SM CLR 18/M02 A2992 RMK AO2
KSHL 222215Z AUTO 20009G16KT 10SM CLR 18/M03 A2992 RMK AO2
KSHL 222155Z AUTO 21010G20KT 10SM CLR 19/M03 A2994 RMK AO2
KSHL 222135Z AUTO 20008G17KT 10SM CLR 19/M03 A2994 RMK AO2
KSHL 222115Z AUTO 20007G18KT 170V240 10SM CLR 19/M02 A2994 RMK AO2
KSHL 222055Z AUTO 20010G16KT 10SM CLR 19/M02 A2994 RMK AO2
KSHL 222035Z AUTO 21011KT 10SM CLR 19/M02 A2996 RMK AO2
KSHL 222015Z AUTO 21007G15KT 10SM CLR 19/M03 A2996 RMK AO2
KSHL 221955Z AUTO 25007G16KT 10SM CLR 19/M03 A2997 RMK AO2
KSHL 221935Z AUTO 24008G16KT 10SM CLR 19/M03 A2998 RMK AO2
KSHL 221915Z AUTO 24010KT 10SM CLR 18/M03 A2999 RMK AO2
KSHL 221855Z AUTO 23011KT 10SM CLR 18/M03 A3000 RMK AO2
KSHL 221835Z AUTO 23009G14KT 10SM CLR 18/M02 A3001 RMK AO2
KSHL 221815Z AUTO 23009G14KT 10SM CLR 18/M02 A3002 RMK AO2
KSHL 221755Z AUTO 22009G14KT 10SM CLR 17/M01 A3002 RMK AO2
KSHL 221735Z AUTO VRB06KT 10SM CLR 17/M00 A3004 RMK AO2
KSHL 221715Z AUTO VRB06G11KT 10SM CLR 16/01 A3005 RMK AO2
KSHL 221655Z AUTO VRB05KT 10SM CLR 15/02 A3006 RMK AO2
KSHL 221635Z AUTO 21005KT 10SM CLR 14/02 A3006 RMK AO2
KSHL 221615Z AUTO VRB05KT 10SM CLR 13/02 A3006 RMK AO2
KSHL 221555Z AUTO 25004KT 10SM CLR 12/03 A3005 RMK AO2
KSHL 221535Z AUTO VRB04KT 10SM CLR 11/03 A3005 RMK AO2
KSHL 221515Z AUTO 29006G11KT 10SM CLR 09/03 A3005 RMK AO2
KSHL 221455Z AUTO 27006KT 10SM CLR 08/04 A3005 RMK AO2
KSHL 221435Z AUTO 24003KT 10SM CLR 06/04 A3006 RMK AO2
KSHL 221415Z AUTO 23003KT 10SM CLR 04/03 A3006 RMK AO2
KSHL 221355Z AUTO 00000KT 9SM CLR 03/02 A3005 RMK AO2
KSHL 221335Z AUTO 00000KT 10SM CLR 00/00 A3004 RMK AO2
KSHL 221315Z AUTO 00000KT 10SM CLR M00/M00 A3004 RMK AO2
KSHL 221255Z AUTO 00000KT 10SM CLR M00/M01 A3004 RMK AO2
KSHL 221235Z AUTO 16004KT 10SM CLR 00/M00 A3004 RMK AO2
KSHL 221215Z AUTO 00000KT 10SM CLR M00/M00 A3002 RMK AO2
KSHL 221155Z AUTO 00000KT 10SM CLR M00/M00 A3003 RMK AO2
KSHL 221135Z AUTO 00000KT 10SM CLR M00/M00 A3002 RMK AO2
KSHL 221115Z AUTO 00000KT 8SM CLR M00/M00 A3001 RMK AO2
KSHL 221055Z AUTO 16003KT 10SM CLR 01/00 A3000 RMK AO2
KSHL 221035Z AUTO 00000KT 10SM CLR 01/01 A2998 RMK AO2
KSHL 221015Z AUTO 00000KT 10SM CLR 01/01 A2998 RMK AO2
KSHL 220955Z AUTO 00000KT 10SM CLR 02/01 A2997 RMK AO2
KSHL 220935Z AUTO 00000KT 10SM CLR 02/02 A2997 RMK AO2
KSHL 220915Z AUTO 00000KT 10SM CLR 03/02 A2997 RMK AO2
KSHL 220855Z AUTO 00000KT 10SM CLR 04/03 A2997 RMK AO2
KSHL 220835Z AUTO 22003KT 10SM CLR 04/03 A2997 RMK AO2
KSHL 220815Z AUTO 00000KT 10SM CLR 04/03 A2995 RMK AO2
KSHL 220755Z AUTO 23003KT 10SM CLR 04/03 A2994 RMK AO2
KSHL 220735Z AUTO 23004KT 10SM CLR 04/03 A2994 RMK AO2
KSHL 220715Z AUTO 00000KT 10SM CLR 06/03 A2995 RMK AO2
KSHL 220655Z AUTO 25004KT 10SM CLR 06/03 A2996 RMK AO2
KSHL 220635Z AUTO 26004KT 10SM CLR 06/03 A2995 RMK AO2
KSHL 220615Z AUTO 26005KT 10SM CLR 05/03 A2995 RMK AO2
KSHL 220555Z AUTO 26005KT 10SM CLR 06/04 A2993 RMK AO2
KSHL 220535Z AUTO 26004KT 10SM CLR 06/04 A2993 RMK AO2
KSHL 220515Z AUTO 25004KT 10SM CLR 05/04 A2993 RMK AO2
KSHL 220455Z AUTO 25005KT 10SM CLR 05/04 A2993 RMK AO2
KSHL 220435Z AUTO 24005KT 10SM CLR 05/04 A2993 RMK AO2
KSHL 220415Z AUTO 21004KT 10SM CLR 05/04 A2992 RMK AO2
KSHL 220355Z AUTO 22003KT 10SM CLR 05/04 A2991 RMK AO2
KSHL 220335Z AUTO 25004KT 10SM CLR 06/04 A2989 RMK AO2
KSHL 220315Z AUTO 26005KT 10SM CLR 06/04 A2990 RMK AO2
KSHL 220255Z AUTO 27005KT 10SM CLR 07/04 A2989 RMK AO2
KSHL 220235Z AUTO 27006KT 10SM CLR 08/04 A2989 RMK AO2
KSHL 220215Z AUTO 28006KT 10SM CLR 08/04 A2989 RMK AO2
KSHL 220155Z AUTO 28007G14KT 10SM CLR 09/04 A2988 RMK AO2
KSHL 220135Z AUTO 29007KT 10SM CLR 09/04 A2986 RMK AO2
KSHL 220115Z AUTO 29009G15KT 10SM CLR 10/04 A2986 RMK AO2
KSHL 220055Z AUTO 29010G15KT 10SM FEW070 10/05 A2986 RMK AO2
KSHL 220035Z AUTO 29010G17KT 10SM CLR 10/06 A2986 RMK AO2
KSHL 220015Z AUTO 28007KT 10SM SCT070 SCT085 11/06 A2984 RMK AO2
KSHL 212355Z AUTO 29007KT 10SM BKN070 OVC085 11/06 A2982 RMK AO2
KSHL 212335Z AUTO 29011KT 10SM OVC065 12/06 A2981 RMK AO2
KSHL 212315Z AUTO 29009KT 10SM OVC060 12/06 A2980 RMK AO2
KSHL 212255Z AUTO 29009KT 10SM OVC055 12/06 A2979 RMK AO2
KSHL 212235Z AUTO 29010G18KT 10SM OVC055 13/06 A2978 RMK AO2
KSHL 212215Z AUTO 30013G18KT 250V320 10SM OVC050 13/06 A2975 RMK AO2
KSHL 212155Z AUTO 30013G23KT 9SM BKN048 OVC055 13/07 A2974 RMK AO2
KSHL 212135Z AUTO 29012G19KT 9SM OVC045 13/07 A2974 RMK AO2
KSHL 212115Z AUTO 29013KT 10SM OVC043 14/07 A2973 RMK AO2
KSHL 212055Z AUTO 30009G16KT 10SM OVC041 14/08 A2972 RMK AO2
KSHL 212035Z AUTO 30013KT 10SM OVC038 13/09 A2969 RMK AO2
KSHL 212015Z AUTO 29009G14KT 7SM -RA OVC034 13/10 A2968 RMK AO2
KSHL 211955Z AUTO 29011KT 10SM OVC031 14/09 A2967 RMK AO2
KSHL 211935Z AUTO 28012G21KT 10SM -DZ OVC028 14/10 A2965 RMK AO2
KSHL 211915Z AUTO 27009G14KT 9SM OVC025 15/12 A2963 RMK AO2
KSHL 211855Z AUTO 27011G19KT 7SM -RA BKN022 OVC027 15/12 A2962 RMK AO2
KSHL 211835Z AUTO 19015G25KT 10SM BKN023 BKN028 BKN075 22/17 A2958 RMK AO2
KSHL 211815Z AUTO 18016G24KT 10SM BKN023 BKN027 OVC090 22/17 A2958 RMK AO2
KSHL 211755Z AUTO 19014G24KT 10SM BKN024 OVC070 21/17 A2959 RMK AO2
KSHL 211735Z AUTO 19014G22KT 10SM BKN025 OVC038 21/17 A2959 RMK AO2
KSHL 211715Z AUTO 19015G22KT 10SM OVC025 21/17 A2959 RMK AO2
KSHL 211655Z AUTO 19016G27KT 10SM BKN022 OVC027 21/17 A2959 RMK AO2
KSHL 211635Z AUTO 18013G20KT 10SM BKN019 OVC027 20/17 A2959 RMK AO2
KSHL 211615Z AUTO 17014G27KT 10SM BKN018 BKN024 OVC060 20/17 A2959 RMK AO2
KSHL 211555Z AUTO 17015G27KT 10SM SCT018 BKN029 OVC060 20/17 A2959 RMK AO2
KSHL 211535Z AUTO 16014G22KT 10SM SCT017 BKN030 OVC048 19/17 A2958 RMK AO2
KSHL 211515Z AUTO 10SM FEW017 OVC028 19/17 A2959 RMK AO2
KSHL 211455Z AUTO 16013G21KT 10SM SCT026 BKN031 OVC060 19/17 A2959 RMK AO2
KSHL 211435Z AUTO 17015G22KT 10SM FEW016 BKN026 OVC033 18/17 A2959 RMK AO2
KSHL 211415Z AUTO 16011G22KT 10SM FEW015 OVC025 18/17 A2959 RMK AO2
KSHL 211355Z AUTO 16012G19KT 10SM SCT014 BKN020 OVC025 18/17 A2959 RMK AO2 P0001
KSHL 211335Z AUTO 16011G17KT 10SM BKN015 OVC021 18/16 A2959 RMK AO2
KSHL 211315Z AUTO 15008G15KT 7SM OVC014 18/16 A2959 RMK AO2
KSHL 211255Z AUTO 17010KT 10SM OVC013 18/16 A2959 RMK AO2
KSHL 211235Z AUTO 16010G18KT 10SM OVC015 18/16 A2959 RMK AO2